sensor_id;sensor_type;location;lat;lon;timestamp;P1;durP1;ratioP1;P2;durP2;ratioP2
70253;SDS011;57649;42.968;1.608;2023-05-02T00:01:35;2.58;;;1.40;;
70253;SDS011;57649;42.968;1.608;2023-05-02T00:04:01;3.38;;;1.48;;
70253;SDS011;57649;42.968;1.608;2023-05-02T00:06:27;2.42;;;1.40;;
70253;SDS011;57649;42.968;1.608;2023-05-02T00:08:55;4.60;;;1.88;;
70253;SDS011;57649;42.968;1.608;2023-05-02T00:11:20;2.75;;;1.38;;
70253;SDS011;57649;42.968;1.608;2023-05-02T00:13:46;5.10;;;1.45;;
70253;SDS011;57649;42.968;1.608;2023-05-02T00:16:12;2.88;;;1.60;;
70253;SDS011;57649;42.968;1.608;2023-05-02T00:18:38;6.22;;;1.60;;
70253;SDS011;57649;42.968;1.608;2023-05-02T00:21:03;4.03;;;1.50;;
70253;SDS011;57649;42.968;1.608;2023-05-02T00:23:29;4.10;;;1.50;;
70253;SDS011;57649;42.968;1.608;2023-05-02T00:25:54;3.42;;;1.60;;
70253;SDS011;57649;42.968;1.608;2023-05-02T00:28:20;3.55;;;1.48;;
70253;SDS011;57649;42.968;1.608;2023-05-02T00:30:45;4.07;;;1.50;;
70253;SDS011;57649;42.968;1.608;2023-05-02T00:33:11;1.95;;;1.40;;
70253;SDS011;57649;42.968;1.608;2023-05-02T00:35:38;3.30;;;1.45;;
70253;SDS011;57649;42.968;1.608;2023-05-02T00:38:04;5.03;;;1.55;;
70253;SDS011;57649;42.968;1.608;2023-05-02T00:40:30;3.38;;;1.30;;
70253;SDS011;57649;42.968;1.608;2023-05-02T00:42:55;6.97;;;1.67;;
70253;SDS011;57649;42.968;1.608;2023-05-02T00:45:21;5.50;;;1.70;;
70253;SDS011;57649;42.968;1.608;2023-05-02T00:47:46;5.07;;;1.58;;
70253;SDS011;57649;42.968;1.608;2023-05-02T00:50:12;4.97;;;1.70;;
70253;SDS011;57649;42.968;1.608;2023-05-02T00:52:37;3.15;;;1.40;;
70253;SDS011;57649;42.968;1.608;2023-05-02T00:55:03;4.47;;;1.83;;
70253;SDS011;57649;42.968;1.608;2023-05-02T00:57:28;3.33;;;1.30;;
70253;SDS011;57649;42.968;1.608;2023-05-02T00:59:54;3.33;;;1.40;;
70253;SDS011;57649;42.968;1.608;2023-05-02T01:02:34;3.85;;;1.70;;
70253;SDS011;57649;42.968;1.608;2023-05-02T01:05:29;4.00;;;1.40;;
70253;SDS011;57649;42.968;1.608;2023-05-02T01:11:01;2.95;;;1.38;;
70253;SDS011;57649;42.968;1.608;2023-05-02T01:13:36;5.70;;;1.50;;
70253;SDS011;57649;42.968;1.608;2023-05-02T01:16:03;3.92;;;1.70;;
70253;SDS011;57649;42.968;1.608;2023-05-02T01:18:33;5.55;;;1.80;;
70253;SDS011;57649;42.968;1.608;2023-05-02T01:21:03;3.15;;;1.48;;
70253;SDS011;57649;42.968;1.608;2023-05-02T01:26:47;3.42;;;1.60;;
70253;SDS011;57649;42.968;1.608;2023-05-02T01:29:20;4.72;;;1.80;;
70253;SDS011;57649;42.968;1.608;2023-05-02T01:31:48;3.38;;;1.70;;
70253;SDS011;57649;42.968;1.608;2023-05-02T01:34:15;5.07;;;2.63;;
70253;SDS011;57649;42.968;1.608;2023-05-02T01:36:44;3.58;;;1.58;;
70253;SDS011;57649;42.968;1.608;2023-05-02T01:39:20;5.20;;;1.70;;
70253;SDS011;57649;42.968;1.608;2023-05-02T01:41:50;5.05;;;1.83;;
70253;SDS011;57649;42.968;1.608;2023-05-02T01:44:17;4.25;;;1.75;;
70253;SDS011;57649;42.968;1.608;2023-05-02T01:46:46;4.30;;;1.75;;
70253;SDS011;57649;42.968;1.608;2023-05-02T01:49:12;4.50;;;1.55;;
70253;SDS011;57649;42.968;1.608;2023-05-02T01:51:56;5.05;;;1.70;;
70253;SDS011;57649;42.968;1.608;2023-05-02T01:54:27;5.40;;;1.90;;
70253;SDS011;57649;42.968;1.608;2023-05-02T01:56:54;3.75;;;1.60;;
70253;SDS011;57649;42.968;1.608;2023-05-02T01:59:21;10.05;;;1.95;;
70253;SDS011;57649;42.968;1.608;2023-05-02T02:01:48;3.50;;;1.70;;
70253;SDS011;57649;42.968;1.608;2023-05-02T02:04:18;5.53;;;2.08;;
70253;SDS011;57649;42.968;1.608;2023-05-02T02:06:45;4.28;;;1.60;;
70253;SDS011;57649;42.968;1.608;2023-05-02T02:09:12;2.90;;;1.52;;
70253;SDS011;57649;42.968;1.608;2023-05-02T02:14:42;3.33;;;1.80;;
70253;SDS011;57649;42.968;1.608;2023-05-02T02:17:21;3.70;;;1.70;;
70253;SDS011;57649;42.968;1.608;2023-05-02T02:19:54;3.03;;;1.60;;
70253;SDS011;57649;42.968;1.608;2023-05-02T02:22:21;4.30;;;1.90;;
70253;SDS011;57649;42.968;1.608;2023-05-02T02:24:50;4.20;;;1.83;;
70253;SDS011;57649;42.968;1.608;2023-05-02T02:27:17;4.00;;;1.50;;
70253;SDS011;57649;42.968;1.608;2023-05-02T02:29:43;3.80;;;1.77;;
70253;SDS011;57649;42.968;1.608;2023-05-02T02:32:09;6.90;;;1.70;;
70253;SDS011;57649;42.968;1.608;2023-05-02T02:34:34;5.28;;;1.90;;
70253;SDS011;57649;42.968;1.608;2023-05-02T02:37:04;4.20;;;1.75;;
70253;SDS011;57649;42.968;1.608;2023-05-02T02:39:43;6.15;;;1.83;;
70253;SDS011;57649;42.968;1.608;2023-05-02T02:42:20;6.35;;;1.88;;
70253;SDS011;57649;42.968;1.608;2023-05-02T02:53:16;4.35;;;2.00;;
70253;SDS011;57649;42.968;1.608;2023-05-02T02:55:45;8.00;;;2.45;;
70253;SDS011;57649;42.968;1.608;2023-05-02T02:58:25;4.40;;;1.52;;
70253;SDS011;57649;42.968;1.608;2023-05-02T03:01:14;5.93;;;1.65;;
70253;SDS011;57649;42.968;1.608;2023-05-02T03:03:43;4.28;;;1.65;;
70253;SDS011;57649;42.968;1.608;2023-05-02T03:06:09;4.13;;;1.85;;
70253;SDS011;57649;42.968;1.608;2023-05-02T03:08:41;5.88;;;1.70;;
70253;SDS011;57649;42.968;1.608;2023-05-02T03:11:08;5.28;;;1.90;;
70253;SDS011;57649;42.968;1.608;2023-05-02T03:13:34;5.53;;;1.60;;
70253;SDS011;57649;42.968;1.608;2023-05-02T03:16:11;4.85;;;1.98;;
70253;SDS011;57649;42.968;1.608;2023-05-02T03:18:59;4.55;;;1.90;;
70253;SDS011;57649;42.968;1.608;2023-05-02T03:21:24;6.97;;;1.80;;
70253;SDS011;57649;42.968;1.608;2023-05-02T03:23:50;3.70;;;1.92;;
70253;SDS011;57649;42.968;1.608;2023-05-02T03:26:16;5.47;;;2.05;;
70253;SDS011;57649;42.968;1.608;2023-05-02T03:28:41;3.95;;;2.05;;
70253;SDS011;57649;42.968;1.608;2023-05-02T03:31:10;4.37;;;1.70;;
70253;SDS011;57649;42.968;1.608;2023-05-02T03:33:36;4.35;;;1.85;;
70253;SDS011;57649;42.968;1.608;2023-05-02T03:36:01;5.25;;;2.08;;
70253;SDS011;57649;42.968;1.608;2023-05-02T03:38:28;5.32;;;1.77;;
70253;SDS011;57649;42.968;1.608;2023-05-02T03:40:55;3.15;;;1.70;;
70253;SDS011;57649;42.968;1.608;2023-05-02T03:43:22;4.70;;;1.90;;
70253;SDS011;57649;42.968;1.608;2023-05-02T03:45:47;5.72;;;2.08;;
70253;SDS011;57649;42.968;1.608;2023-05-02T03:48:13;5.43;;;2.05;;
70253;SDS011;57649;42.968;1.608;2023-05-02T03:50:38;7.63;;;2.08;;
70253;SDS011;57649;42.968;1.608;2023-05-02T03:53:03;4.05;;;1.80;;
70253;SDS011;57649;42.968;1.608;2023-05-02T03:55:29;6.78;;;1.67;;
70253;SDS011;57649;42.968;1.608;2023-05-02T03:57:54;3.67;;;1.77;;
70253;SDS011;57649;42.968;1.608;2023-05-02T04:00:20;3.13;;;1.85;;
70253;SDS011;57649;42.968;1.608;2023-05-02T04:02:46;6.93;;;2.58;;
70253;SDS011;57649;42.968;1.608;2023-05-02T04:05:11;4.38;;;2.00;;
70253;SDS011;57649;42.968;1.608;2023-05-02T04:07:37;3.47;;;1.85;;
70253;SDS011;57649;42.968;1.608;2023-05-02T04:10:02;3.78;;;1.80;;
70253;SDS011;57649;42.968;1.608;2023-05-02T04:12:28;6.03;;;1.80;;
70253;SDS011;57649;42.968;1.608;2023-05-02T04:14:53;3.10;;;1.80;;
70253;SDS011;57649;42.968;1.608;2023-05-02T04:17:19;3.35;;;1.95;;
70253;SDS011;57649;42.968;1.608;2023-05-02T04:19:45;4.65;;;1.90;;
70253;SDS011;57649;42.968;1.608;2023-05-02T04:22:10;7.20;;;2.25;;
70253;SDS011;57649;42.968;1.608;2023-05-02T04:24:36;6.80;;;2.05;;
70253;SDS011;57649;42.968;1.608;2023-05-02T04:27:01;6.40;;;2.15;;
70253;SDS011;57649;42.968;1.608;2023-05-02T04:29:27;5.03;;;1.90;;
70253;SDS011;57649;42.968;1.608;2023-05-02T04:31:52;3.97;;;1.92;;
70253;SDS011;57649;42.968;1.608;2023-05-02T04:34:18;6.82;;;2.10;;
70253;SDS011;57649;42.968;1.608;2023-05-02T04:36:44;6.43;;;1.92;;
70253;SDS011;57649;42.968;1.608;2023-05-02T04:39:10;6.60;;;1.80;;
70253;SDS011;57649;42.968;1.608;2023-05-02T04:41:36;5.90;;;2.00;;
70253;SDS011;57649;42.968;1.608;2023-05-02T04:44:01;6.60;;;1.90;;
70253;SDS011;57649;42.968;1.608;2023-05-02T04:46:27;3.80;;;1.70;;
70253;SDS011;57649;42.968;1.608;2023-05-02T04:48:53;9.35;;;2.78;;
70253;SDS011;57649;42.968;1.608;2023-05-02T04:51:18;4.88;;;2.13;;
70253;SDS011;57649;42.968;1.608;2023-05-02T04:53:44;5.63;;;2.22;;
70253;SDS011;57649;42.968;1.608;2023-05-02T04:56:09;2.58;;;1.83;;
70253;SDS011;57649;42.968;1.608;2023-05-02T04:58:35;5.88;;;2.17;;
70253;SDS011;57649;42.968;1.608;2023-05-02T05:01:00;14.15;;;2.25;;
70253;SDS011;57649;42.968;1.608;2023-05-02T05:03:26;4.68;;;2.10;;
70253;SDS011;57649;42.968;1.608;2023-05-02T05:05:54;4.55;;;2.00;;
70253;SDS011;57649;42.968;1.608;2023-05-02T05:08:20;5.13;;;1.92;;
70253;SDS011;57649;42.968;1.608;2023-05-02T05:10:45;6.50;;;2.40;;
70253;SDS011;57649;42.968;1.608;2023-05-02T05:13:11;6.25;;;2.20;;
70253;SDS011;57649;42.968;1.608;2023-05-02T05:15:37;11.82;;;3.35;;
70253;SDS011;57649;42.968;1.608;2023-05-02T05:18:04;3.63;;;2.20;;
70253;SDS011;57649;42.968;1.608;2023-05-02T05:20:29;5.97;;;2.30;;
70253;SDS011;57649;42.968;1.608;2023-05-02T05:22:55;2.45;;;2.00;;
70253;SDS011;57649;42.968;1.608;2023-05-02T05:25:21;7.95;;;2.25;;
70253;SDS011;57649;42.968;1.608;2023-05-02T05:27:46;6.25;;;2.13;;
70253;SDS011;57649;42.968;1.608;2023-05-02T05:30:11;5.50;;;2.20;;
70253;SDS011;57649;42.968;1.608;2023-05-02T05:32:37;4.85;;;2.38;;
70253;SDS011;57649;42.968;1.608;2023-05-02T05:35:03;7.40;;;2.25;;
70253;SDS011;57649;42.968;1.608;2023-05-02T05:37:28;4.13;;;2.10;;
70253;SDS011;57649;42.968;1.608;2023-05-02T05:39:54;3.92;;;2.45;;
70253;SDS011;57649;42.968;1.608;2023-05-02T05:42:19;5.18;;;2.00;;
70253;SDS011;57649;42.968;1.608;2023-05-02T05:44:45;8.45;;;2.60;;
70253;SDS011;57649;42.968;1.608;2023-05-02T05:47:10;4.63;;;2.75;;
70253;SDS011;57649;42.968;1.608;2023-05-02T05:49:35;4.57;;;2.25;;
70253;SDS011;57649;42.968;1.608;2023-05-02T05:52:01;3.25;;;2.08;;
70253;SDS011;57649;42.968;1.608;2023-05-02T05:54:26;8.15;;;2.92;;
70253;SDS011;57649;42.968;1.608;2023-05-02T05:56:52;5.53;;;2.25;;
70253;SDS011;57649;42.968;1.608;2023-05-02T05:59:18;4.38;;;1.95;;
70253;SDS011;57649;42.968;1.608;2023-05-02T06:01:43;2.90;;;2.20;;
70253;SDS011;57649;42.968;1.608;2023-05-02T06:04:09;3.20;;;2.50;;
70253;SDS011;57649;42.968;1.608;2023-05-02T06:06:34;4.28;;;2.08;;
70253;SDS011;57649;42.968;1.608;2023-05-02T06:09:00;5.70;;;2.90;;
70253;SDS011;57649;42.968;1.608;2023-05-02T06:11:25;4.63;;;2.13;;
70253;SDS011;57649;42.968;1.608;2023-05-02T06:13:51;4.18;;;2.40;;
70253;SDS011;57649;42.968;1.608;2023-05-02T06:16:17;8.95;;;2.30;;
70253;SDS011;57649;42.968;1.608;2023-05-02T06:18:43;4.85;;;2.10;;
70253;SDS011;57649;42.968;1.608;2023-05-02T06:21:09;6.32;;;2.67;;
70253;SDS011;57649;42.968;1.608;2023-05-02T06:23:34;4.38;;;2.60;;
70253;SDS011;57649;42.968;1.608;2023-05-02T06:26:00;4.85;;;1.73;;
70253;SDS011;57649;42.968;1.608;2023-05-02T06:28:27;9.85;;;2.67;;
70253;SDS011;57649;42.968;1.608;2023-05-02T06:30:59;4.95;;;1.55;;
70253;SDS011;57649;42.968;1.608;2023-05-02T06:33:29;3.85;;;1.90;;
70253;SDS011;57649;42.968;1.608;2023-05-02T06:35:56;3.50;;;1.50;;
70253;SDS011;57649;42.968;1.608;2023-05-02T06:38:23;6.40;;;1.98;;
70253;SDS011;57649;42.968;1.608;2023-05-02T06:40:49;4.22;;;1.60;;
70253;SDS011;57649;42.968;1.608;2023-05-02T06:43:15;4.25;;;1.70;;
70253;SDS011;57649;42.968;1.608;2023-05-02T06:45:41;3.95;;;1.67;;
70253;SDS011;57649;42.968;1.608;2023-05-02T06:48:07;5.15;;;2.20;;
70253;SDS011;57649;42.968;1.608;2023-05-02T06:50:33;7.40;;;2.35;;
70253;SDS011;57649;42.968;1.608;2023-05-02T06:52:59;5.57;;;1.65;;
70253;SDS011;57649;42.968;1.608;2023-05-02T06:55:25;5.72;;;2.75;;
70253;SDS011;57649;42.968;1.608;2023-05-02T06:57:50;4.68;;;2.10;;
70253;SDS011;57649;42.968;1.608;2023-05-02T07:00:16;5.72;;;4.40;;
70253;SDS011;57649;42.968;1.608;2023-05-02T07:02:46;4.53;;;1.42;;
70253;SDS011;57649;42.968;1.608;2023-05-02T07:05:12;6.43;;;1.90;;
70253;SDS011;57649;42.968;1.608;2023-05-02T07:07:39;5.47;;;1.90;;
70253;SDS011;57649;42.968;1.608;2023-05-02T07:10:08;3.10;;;1.77;;
70253;SDS011;57649;42.968;1.608;2023-05-02T07:12:34;3.67;;;1.60;;
70253;SDS011;57649;42.968;1.608;2023-05-02T07:15:00;3.38;;;1.63;;
70253;SDS011;57649;42.968;1.608;2023-05-02T07:17:25;4.47;;;1.30;;
70253;SDS011;57649;42.968;1.608;2023-05-02T07:19:51;3.13;;;1.58;;
70253;SDS011;57649;42.968;1.608;2023-05-02T07:22:17;3.25;;;1.25;;
70253;SDS011;57649;42.968;1.608;2023-05-02T07:24:42;2.08;;;1.23;;
70253;SDS011;57649;42.968;1.608;2023-05-02T07:27:08;6.15;;;1.73;;
70253;SDS011;57649;42.968;1.608;2023-05-02T07:29:34;3.40;;;1.50;;
70253;SDS011;57649;42.968;1.608;2023-05-02T07:32:00;3.53;;;1.40;;
70253;SDS011;57649;42.968;1.608;2023-05-02T07:34:25;2.80;;;1.30;;
70253;SDS011;57649;42.968;1.608;2023-05-02T07:36:50;2.80;;;1.27;;
70253;SDS011;57649;42.968;1.608;2023-05-02T07:39:16;8.93;;;2.55;;
70253;SDS011;57649;42.968;1.608;2023-05-02T07:41:41;4.63;;;1.52;;
70253;SDS011;57649;42.968;1.608;2023-05-02T07:44:07;5.20;;;1.35;;
70253;SDS011;57649;42.968;1.608;2023-05-02T07:46:32;3.90;;;1.10;;
70253;SDS011;57649;42.968;1.608;2023-05-02T07:48:58;4.07;;;1.40;;
70253;SDS011;57649;42.968;1.608;2023-05-02T07:51:23;3.28;;;1.35;;
70253;SDS011;57649;42.968;1.608;2023-05-02T07:53:50;3.13;;;1.40;;
70253;SDS011;57649;42.968;1.608;2023-05-02T07:56:23;3.20;;;1.35;;
70253;SDS011;57649;42.968;1.608;2023-05-02T07:58:49;2.85;;;1.23;;
70253;SDS011;57649;42.968;1.608;2023-05-02T08:01:15;2.13;;;1.42;;
70253;SDS011;57649;42.968;1.608;2023-05-02T08:03:41;5.25;;;1.20;;
70253;SDS011;57649;42.968;1.608;2023-05-02T08:06:06;1.85;;;0.90;;
70253;SDS011;57649;42.968;1.608;2023-05-02T08:08:33;2.67;;;1.17;;
70253;SDS011;57649;42.968;1.608;2023-05-02T08:10:58;3.70;;;1.20;;
70253;SDS011;57649;42.968;1.608;2023-05-02T08:13:24;3.22;;;1.05;;
70253;SDS011;57649;42.968;1.608;2023-05-02T08:15:49;3.08;;;1.00;;
70253;SDS011;57649;42.968;1.608;2023-05-02T08:18:15;2.10;;;1.20;;
70253;SDS011;57649;42.968;1.608;2023-05-02T08:20:40;3.05;;;1.13;;
70253;SDS011;57649;42.968;1.608;2023-05-02T08:23:07;2.90;;;1.10;;
70253;SDS011;57649;42.968;1.608;2023-05-02T08:25:32;2.17;;;1.00;;
70253;SDS011;57649;42.968;1.608;2023-05-02T08:27:58;4.57;;;1.17;;
70253;SDS011;57649;42.968;1.608;2023-05-02T08:30:23;2.53;;;1.20;;
70253;SDS011;57649;42.968;1.608;2023-05-02T08:32:48;6.13;;;2.90;;
70253;SDS011;57649;42.968;1.608;2023-05-02T08:35:14;2.20;;;1.52;;
70253;SDS011;57649;42.968;1.608;2023-05-02T08:37:39;3.00;;;1.30;;
70253;SDS011;57649;42.968;1.608;2023-05-02T08:40:05;4.05;;;1.42;;
70253;SDS011;57649;42.968;1.608;2023-05-02T08:42:35;2.33;;;1.10;;
70253;SDS011;57649;42.968;1.608;2023-05-02T08:45:01;2.75;;;1.17;;
70253;SDS011;57649;42.968;1.608;2023-05-02T08:47:28;2.72;;;1.27;;
70253;SDS011;57649;42.968;1.608;2023-05-02T08:49:55;3.08;;;1.00;;
70253;SDS011;57649;42.968;1.608;2023-05-02T08:52:22;3.70;;;1.20;;
70253;SDS011;57649;42.968;1.608;2023-05-02T08:54:48;2.75;;;1.25;;
70253;SDS011;57649;42.968;1.608;2023-05-02T08:57:15;3.45;;;1.40;;
70253;SDS011;57649;42.968;1.608;2023-05-02T08:59:41;3.60;;;1.20;;
70253;SDS011;57649;42.968;1.608;2023-05-02T09:02:11;2.42;;;0.98;;
70253;SDS011;57649;42.968;1.608;2023-05-02T09:04:47;2.03;;;0.95;;
70253;SDS011;57649;42.968;1.608;2023-05-02T09:07:18;2.45;;;0.98;;
70253;SDS011;57649;42.968;1.608;2023-05-02T09:09:43;4.00;;;1.50;;
70253;SDS011;57649;42.968;1.608;2023-05-02T09:12:09;1.75;;;1.10;;
70253;SDS011;57649;42.968;1.608;2023-05-02T09:14:34;1.92;;;1.00;;
70253;SDS011;57649;42.968;1.608;2023-05-02T09:16:59;1.90;;;1.30;;
70253;SDS011;57649;42.968;1.608;2023-05-02T09:19:25;3.00;;;1.00;;
70253;SDS011;57649;42.968;1.608;2023-05-02T09:21:51;3.65;;;1.20;;
70253;SDS011;57649;42.968;1.608;2023-05-02T09:24:23;4.20;;;2.10;;
70253;SDS011;57649;42.968;1.608;2023-05-02T09:27:02;2.88;;;1.27;;
70253;SDS011;57649;42.968;1.608;2023-05-02T09:29:29;4.22;;;1.73;;
70253;SDS011;57649;42.968;1.608;2023-05-02T09:31:59;3.88;;;1.20;;
70253;SDS011;57649;42.968;1.608;2023-05-02T09:34:26;2.85;;;1.40;;
70253;SDS011;57649;42.968;1.608;2023-05-02T09:36:51;6.78;;;1.25;;
70253;SDS011;57649;42.968;1.608;2023-05-02T09:39:23;3.03;;;1.15;;
70253;SDS011;57649;42.968;1.608;2023-05-02T09:44:18;3.92;;;1.20;;
70253;SDS011;57649;42.968;1.608;2023-05-02T09:49:11;7.18;;;1.60;;
70253;SDS011;57649;42.968;1.608;2023-05-02T09:51:38;3.63;;;1.27;;
70253;SDS011;57649;42.968;1.608;2023-05-02T09:54:05;4.85;;;1.80;;
70253;SDS011;57649;42.968;1.608;2023-05-02T09:56:30;3.92;;;1.30;;
70253;SDS011;57649;42.968;1.608;2023-05-02T09:59:11;11.68;;;1.50;;
70253;SDS011;57649;42.968;1.608;2023-05-02T10:01:41;1.60;;;1.10;;
70253;SDS011;57649;42.968;1.608;2023-05-02T10:04:12;6.30;;;1.48;;
70253;SDS011;57649;42.968;1.608;2023-05-02T10:06:43;2.97;;;1.00;;
70253;SDS011;57649;42.968;1.608;2023-05-02T10:09:08;4.30;;;1.30;;
70253;SDS011;57649;42.968;1.608;2023-05-02T10:11:36;2.15;;;1.10;;
70253;SDS011;57649;42.968;1.608;2023-05-02T10:14:04;4.10;;;1.05;;
70253;SDS011;57649;42.968;1.608;2023-05-02T10:16:33;2.75;;;1.30;;
70253;SDS011;57649;42.968;1.608;2023-05-02T10:19:06;4.22;;;1.10;;
70253;SDS011;57649;42.968;1.608;2023-05-02T10:21:34;2.63;;;1.10;;
70253;SDS011;57649;42.968;1.608;2023-05-02T10:24:01;1.75;;;1.00;;
70253;SDS011;57649;42.968;1.608;2023-05-02T10:26:29;3.23;;;1.10;;
70253;SDS011;57649;42.968;1.608;2023-05-02T10:28:55;9.32;;;2.50;;
70253;SDS011;57649;42.968;1.608;2023-05-02T10:31:21;8.98;;;2.95;;
70253;SDS011;57649;42.968;1.608;2023-05-02T10:33:50;2.55;;;1.30;;
70253;SDS011;57649;42.968;1.608;2023-05-02T10:36:19;3.72;;;1.30;;
70253;SDS011;57649;42.968;1.608;2023-05-02T10:38:46;2.60;;;1.42;;
70253;SDS011;57649;42.968;1.608;2023-05-02T10:41:25;2.40;;;1.23;;
70253;SDS011;57649;42.968;1.608;2023-05-02T10:43:53;2.53;;;1.08;;
70253;SDS011;57649;42.968;1.608;2023-05-02T10:51:27;3.42;;;1.23;;
70253;SDS011;57649;42.968;1.608;2023-05-02T10:59:28;2.75;;;0.98;;
70253;SDS011;57649;42.968;1.608;2023-05-02T11:01:55;3.10;;;1.13;;
70253;SDS011;57649;42.968;1.608;2023-05-02T11:04:21;1.38;;;0.88;;
70253;SDS011;57649;42.968;1.608;2023-05-02T11:11:51;1.90;;;1.00;;
70253;SDS011;57649;42.968;1.608;2023-05-02T11:24:42;5.22;;;1.30;;
70253;SDS011;57649;42.968;1.608;2023-05-02T11:30:06;2.83;;;1.33;;
70253;SDS011;57649;42.968;1.608;2023-05-02T11:37:53;2.15;;;1.10;;
70253;SDS011;57649;42.968;1.608;2023-05-02T11:40:23;1.95;;;0.80;;
70253;SDS011;57649;42.968;1.608;2023-05-02T11:42:50;1.55;;;0.90;;
70253;SDS011;57649;42.968;1.608;2023-05-02T11:45:16;1.60;;;0.80;;
70253;SDS011;57649;42.968;1.608;2023-05-02T11:47:41;2.42;;;0.90;;
70253;SDS011;57649;42.968;1.608;2023-05-02T11:50:07;4.30;;;1.23;;
70253;SDS011;57649;42.968;1.608;2023-05-02T11:52:37;2.83;;;1.20;;
70253;SDS011;57649;42.968;1.608;2023-05-02T11:57:33;2.50;;;1.00;;
70253;SDS011;57649;42.968;1.608;2023-05-02T11:59:59;1.75;;;0.80;;
70253;SDS011;57649;42.968;1.608;2023-05-02T12:02:37;3.88;;;1.25;;
70253;SDS011;57649;42.968;1.608;2023-05-02T12:05:05;1.90;;;0.90;;
70253;SDS011;57649;42.968;1.608;2023-05-02T12:07:38;3.47;;;1.08;;
70253;SDS011;57649;42.968;1.608;2023-05-02T12:10:04;4.10;;;1.35;;
70253;SDS011;57649;42.968;1.608;2023-05-02T12:12:31;3.80;;;1.00;;
70253;SDS011;57649;42.968;1.608;2023-05-02T12:14:57;1.58;;;0.90;;
70253;SDS011;57649;42.968;1.608;2023-05-02T12:17:23;3.75;;;1.10;;
70253;SDS011;57649;42.968;1.608;2023-05-02T12:19:49;3.72;;;1.25;;
70253;SDS011;57649;42.968;1.608;2023-05-02T12:22:14;1.60;;;0.80;;
70253;SDS011;57649;42.968;1.608;2023-05-02T12:24:41;1.60;;;0.73;;
70253;SDS011;57649;42.968;1.608;2023-05-02T12:27:16;3.90;;;1.00;;
70253;SDS011;57649;42.968;1.608;2023-05-02T12:29:42;3.35;;;1.00;;
70253;SDS011;57649;42.968;1.608;2023-05-02T12:32:12;1.27;;;0.63;;
70253;SDS011;57649;42.968;1.608;2023-05-02T12:34:38;2.85;;;0.90;;
70253;SDS011;57649;42.968;1.608;2023-05-02T12:37:05;5.75;;;1.13;;
70253;SDS011;57649;42.968;1.608;2023-05-02T12:39:38;2.78;;;0.80;;
70253;SDS011;57649;42.968;1.608;2023-05-02T12:42:11;2.03;;;0.90;;
70253;SDS011;57649;42.968;1.608;2023-05-02T12:44:37;1.88;;;0.70;;
70253;SDS011;57649;42.968;1.608;2023-05-02T12:47:04;1.48;;;0.65;;
70253;SDS011;57649;42.968;1.608;2023-05-02T12:49:29;3.75;;;1.30;;
70253;SDS011;57649;42.968;1.608;2023-05-02T12:51:55;3.95;;;0.95;;
70253;SDS011;57649;42.968;1.608;2023-05-02T12:54:20;1.95;;;0.80;;
70253;SDS011;57649;42.968;1.608;2023-05-02T12:56:46;2.75;;;1.10;;
70253;SDS011;57649;42.968;1.608;2023-05-02T12:59:29;2.67;;;1.00;;
70253;SDS011;57649;42.968;1.608;2023-05-02T13:01:55;2.53;;;1.10;;
70253;SDS011;57649;42.968;1.608;2023-05-02T13:04:21;2.05;;;0.70;;
70253;SDS011;57649;42.968;1.608;2023-05-02T13:06:57;2.78;;;1.00;;
70253;SDS011;57649;42.968;1.608;2023-05-02T13:09:23;2.28;;;1.00;;
70253;SDS011;57649;42.968;1.608;2023-05-02T13:11:48;3.03;;;0.90;;
70253;SDS011;57649;42.968;1.608;2023-05-02T13:14:14;1.73;;;0.80;;
70253;SDS011;57649;42.968;1.608;2023-05-02T13:16:39;2.30;;;0.77;;
70253;SDS011;57649;42.968;1.608;2023-05-02T13:19:05;6.30;;;1.35;;
70253;SDS011;57649;42.968;1.608;2023-05-02T13:21:30;3.88;;;1.15;;
70253;SDS011;57649;42.968;1.608;2023-05-02T13:23:56;3.80;;;0.80;;
70253;SDS011;57649;42.968;1.608;2023-05-02T13:26:22;1.67;;;1.00;;
70253;SDS011;57649;42.968;1.608;2023-05-02T13:28:48;2.08;;;1.10;;
70253;SDS011;57649;42.968;1.608;2023-05-02T13:31:13;1.95;;;0.73;;
70253;SDS011;57649;42.968;1.608;2023-05-02T13:33:38;4.20;;;0.80;;
70253;SDS011;57649;42.968;1.608;2023-05-02T13:36:04;1.55;;;0.80;;
70253;SDS011;57649;42.968;1.608;2023-05-02T13:38:30;1.45;;;0.68;;
70253;SDS011;57649;42.968;1.608;2023-05-02T13:40:55;2.03;;;0.93;;
70253;SDS011;57649;42.968;1.608;2023-05-02T13:43:21;5.72;;;1.10;;
70253;SDS011;57649;42.968;1.608;2023-05-02T13:45:48;1.20;;;0.77;;
70253;SDS011;57649;42.968;1.608;2023-05-02T13:48:13;1.50;;;0.82;;
70253;SDS011;57649;42.968;1.608;2023-05-02T13:50:39;1.60;;;0.90;;
70253;SDS011;57649;42.968;1.608;2023-05-02T13:53:05;1.83;;;0.80;;
70253;SDS011;57649;42.968;1.608;2023-05-02T13:55:30;2.22;;;0.70;;
70253;SDS011;57649;42.968;1.608;2023-05-02T13:57:56;0.88;;;0.60;;
70253;SDS011;57649;42.968;1.608;2023-05-02T14:00:21;1.52;;;0.80;;
70253;SDS011;57649;42.968;1.608;2023-05-02T14:02:46;2.97;;;0.80;;
70253;SDS011;57649;42.968;1.608;2023-05-02T14:05:12;1.65;;;0.93;;
70253;SDS011;57649;42.968;1.608;2023-05-02T14:07:38;1.75;;;0.60;;
70253;SDS011;57649;42.968;1.608;2023-05-02T14:10:04;2.08;;;1.00;;
70253;SDS011;57649;42.968;1.608;2023-05-02T14:12:29;2.03;;;1.00;;
70253;SDS011;57649;42.968;1.608;2023-05-02T14:14:55;7.07;;;1.38;;
70253;SDS011;57649;42.968;1.608;2023-05-02T14:17:21;1.55;;;0.80;;
70253;SDS011;57649;42.968;1.608;2023-05-02T14:19:49;1.38;;;0.90;;
70253;SDS011;57649;42.968;1.608;2023-05-02T14:22:15;1.50;;;0.80;;
70253;SDS011;57649;42.968;1.608;2023-05-02T14:24:41;1.58;;;0.88;;
70253;SDS011;57649;42.968;1.608;2023-05-02T14:27:06;2.65;;;0.77;;
70253;SDS011;57649;42.968;1.608;2023-05-02T14:29:36;6.00;;;0.88;;
70253;SDS011;57649;42.968;1.608;2023-05-02T14:32:02;2.05;;;0.90;;
70253;SDS011;57649;42.968;1.608;2023-05-02T14:34:28;1.55;;;0.90;;
70253;SDS011;57649;42.968;1.608;2023-05-02T14:36:54;3.00;;;0.90;;
70253;SDS011;57649;42.968;1.608;2023-05-02T14:39:20;4.07;;;1.08;;
70253;SDS011;57649;42.968;1.608;2023-05-02T14:41:45;1.35;;;0.75;;
70253;SDS011;57649;42.968;1.608;2023-05-02T14:44:10;3.30;;;0.70;;
70253;SDS011;57649;42.968;1.608;2023-05-02T14:46:36;2.30;;;0.63;;
70253;SDS011;57649;42.968;1.608;2023-05-02T14:49:01;4.78;;;1.20;;
70253;SDS011;57649;42.968;1.608;2023-05-02T14:51:27;2.55;;;0.80;;
70253;SDS011;57649;42.968;1.608;2023-05-02T14:53:52;2.58;;;0.70;;
70253;SDS011;57649;42.968;1.608;2023-05-02T14:56:18;1.42;;;0.70;;
70253;SDS011;57649;42.968;1.608;2023-05-02T14:58:44;2.92;;;0.90;;
70253;SDS011;57649;42.968;1.608;2023-05-02T15:01:17;1.70;;;0.98;;
70253;SDS011;57649;42.968;1.608;2023-05-02T15:03:43;4.43;;;1.00;;
70253;SDS011;57649;42.968;1.608;2023-05-02T15:06:10;1.80;;;0.90;;
70253;SDS011;57649;42.968;1.608;2023-05-02T15:08:36;2.65;;;0.88;;
70253;SDS011;57649;42.968;1.608;2023-05-02T15:11:02;2.65;;;1.20;;
70253;SDS011;57649;42.968;1.608;2023-05-02T15:13:27;2.22;;;0.93;;
70253;SDS011;57649;42.968;1.608;2023-05-02T15:15:52;1.80;;;0.88;;
70253;SDS011;57649;42.968;1.608;2023-05-02T15:18:19;2.70;;;0.98;;
70253;SDS011;57649;42.968;1.608;2023-05-02T15:20:45;2.20;;;1.00;;
70253;SDS011;57649;42.968;1.608;2023-05-02T15:23:11;4.75;;;1.30;;
70253;SDS011;57649;42.968;1.608;2023-05-02T15:25:36;4.18;;;1.35;;
70253;SDS011;57649;42.968;1.608;2023-05-02T15:28:02;2.03;;;0.65;;
70253;SDS011;57649;42.968;1.608;2023-05-02T15:30:27;3.08;;;1.00;;
70253;SDS011;57649;42.968;1.608;2023-05-02T15:32:53;1.13;;;0.63;;
70253;SDS011;57649;42.968;1.608;2023-05-02T15:35:18;2.33;;;1.10;;
70253;SDS011;57649;42.968;1.608;2023-05-02T15:37:44;1.77;;;0.70;;
70253;SDS011;57649;42.968;1.608;2023-05-02T15:40:09;3.88;;;1.60;;
70253;SDS011;57649;42.968;1.608;2023-05-02T15:42:35;3.55;;;2.20;;
70253;SDS011;57649;42.968;1.608;2023-05-02T15:45:01;1.83;;;0.93;;
70253;SDS011;57649;42.968;1.608;2023-05-02T15:47:26;2.85;;;0.93;;